Time;durP1;ratioP1;P1;durP2;ratioP2;P2;SDS_P1;SDS_P2;PMS_P1;PMS_P2;Temp;Humidity;BMP_temperature;BMP_pressure;BME280_temperature;BME280_humidity;BME280_pressure;Samples;Min_cycle;Max_cycle;Signal;HPM_P1;HPM_P2
2022/07/26 06:04:07;;;;;;;3.90;1.65;;;;;;;;;;5239468;23;20548;-63
2022/07/26 06:06:34;;;;;;;3.50;1.50;;;;;;;;;;4874518;29;20105;-62
2022/07/26 06:09:00;;;;;;;6.75;1.85;;;;;;;;;;4875156;29;20037;-61
2022/07/26 06:11:27;;;;;;;3.70;1.50;;;;;;;;;;4871307;29;20029;-63
2022/07/26 06:13:53;;;;;;;3.42;1.20;;;;;;;;;;4883364;29;20016;-63
2022/07/26 06:16:20;;;;;;;2.20;1.30;;;;;;;;;;4876805;29;20033;-63
2022/07/26 06:18:46;;;;;;;4.00;1.38;;;;;;;;;;4877085;29;20449;-63
2022/07/26 06:21:12;;;;;;;3.17;1.73;;;;;;;;;;4876978;29;20482;-62
2022/07/26 06:23:39;;;;;;;4.85;1.38;;;;;;;;;;4878379;29;20025;-64
2022/07/26 06:26:05;;;;;;;5.57;1.60;;;;;;;;;;4874932;29;20039;-63
2022/07/26 06:28:32;;;;;;;4.18;1.30;;;;;;;;;;4859701;29;20037;-63
2022/07/26 06:30:58;;;;;;;3.58;1.42;;;;;;;;;;4875010;29;20052;-64
2022/07/26 06:33:24;;;;;;;4.97;1.60;;;;;;;;;;4876527;29;20040;-63
2022/07/26 06:35:50;;;;;;;4.18;1.33;;;;;;;;;;4876212;29;20029;-63
2022/07/26 06:38:17;;;;;;;13.38;1.58;;;;;;;;;;4878546;29;20031;-64
2022/07/26 06:40:43;;;;;;;3.63;1.38;;;;;;;;;;4882495;29;20041;-64
2022/07/26 06:43:09;;;;;;;3.35;1.40;;;;;;;;;;4875164;29;20025;-63
2022/07/26 06:45:36;;;;;;;3.80;1.10;;;;;;;;;;4861180;29;20092;-63
2022/07/26 06:48:02;;;;;;;3.25;1.20;;;;;;;;;;4868346;29;20028;-63
2022/07/26 06:50:28;;;;;;;7.03;1.30;;;;;;;;;;4879374;29;20037;-64
2022/07/26 06:52:55;;;;;;;2.83;1.10;;;;;;;;;;4879567;29;20487;-63
2022/07/26 06:55:21;;;;;;;3.30;1.38;;;;;;;;;;4879687;29;20029;-63
2022/07/26 06:57:47;;;;;;;6.18;2.20;;;;;;;;;;4879748;29;20037;-63
2022/07/26 07:00:14;;;;;;;5.40;1.50;;;;;;;;;;4862748;29;20029;-64
2022/07/26 07:02:40;;;;;;;6.05;1.88;;;;;;;;;;4879323;29;20032;-64
2022/07/26 07:05:07;;;;;;;4.50;1.60;;;;;;;;;;4876236;29;20037;-63
2022/07/26 07:07:35;;;;;;;4.68;1.33;;;;;;;;;;4871582;29;20433;-63
2022/07/26 07:10:02;;;;;;;3.70;1.05;;;;;;;;;;4860884;29;20021;-63
2022/07/26 07:12:29;;;;;;;3.05;1.23;;;;;;;;;;4873225;29;20037;-64
2022/07/26 07:14:55;;;;;;;2.13;1.20;;;;;;;;;;4879396;29;20372;-64
2022/07/26 07:17:22;;;;;;;2.63;1.20;;;;;;;;;;4876860;29;20039;-63
2022/07/26 07:19:48;;;;;;;3.58;1.20;;;;;;;;;;4862588;29;20028;-63
2022/07/26 07:22:15;;;;;;;3.55;1.10;;;;;;;;;;4876787;29;20375;-63
2022/07/26 07:24:41;;;;;;;3.33;1.25;;;;;;;;;;4878257;29;20398;-64
2022/07/26 07:27:08;;;;;;;3.80;1.20;;;;;;;;;;4878363;29;20040;-63
2022/07/26 07:29:35;;;;;;;6.30;1.20;;;;;;;;;;4878858;29;20537;-63
2022/07/26 07:32:01;;;;;;;3.70;1.50;;;;;;;;;;4878953;29;20492;-63
2022/07/26 07:34:27;;;;;;;4.25;1.60;;;;;;;;;;4878426;29;20025;-64
2022/07/26 07:36:53;;;;;;;3.03;1.20;;;;;;;;;;4879322;29;20047;-68
2022/07/26 07:39:20;;;;;;;1.77;0.98;;;;;;;;;;4878817;29;20025;-68
2022/07/26 07:41:46;;;;;;;3.53;1.00;;;;;;;;;;4891335;29;20040;-67
2022/07/26 07:44:13;;;;;;;3.72;1.00;;;;;;;;;;4897389;29;20042;-68
2022/07/26 07:46:39;;;;;;;2.55;1.08;;;;;;;;;;4897392;29;20037;-68
2022/07/26 07:49:05;;;;;;;4.10;0.90;;;;;;;;;;4897156;29;20071;-68
2022/07/26 07:51:32;;;;;;;2.92;1.00;;;;;;;;;;4897490;29;20043;-67
2022/07/26 07:53:59;;;;;;;4.22;1.40;;;;;;;;;;4885178;29;20536;-68
2022/07/26 07:56:25;;;;;;;2.20;1.00;;;;;;;;;;4878924;29;20037;-68
2022/07/26 07:58:52;;;;;;;2.42;0.88;;;;;;;;;;4878281;29;20029;-68
2022/07/26 08:01:18;;;;;;;2.22;1.00;;;;;;;;;;4863669;29;20059;-68
2022/07/26 08:03:45;;;;;;;5.15;1.17;;;;;;;;;;4859488;29;20049;-68
2022/07/26 08:06:11;;;;;;;2.17;0.90;;;;;;;;;;4865578;29;20033;-68
2022/07/26 08:08:37;;;;;;;3.03;0.93;;;;;;;;;;4866123;29;20045;-68
2022/07/26 08:11:04;;;;;;;3.85;1.25;;;;;;;;;;4878328;29;20029;-68
2022/07/26 08:13:31;;;;;;;2.42;1.23;;;;;;;;;;4879958;29;20046;-68
2022/07/26 08:15:57;;;;;;;3.08;0.82;;;;;;;;;;4896992;29;20020;-68
2022/07/26 08:18:23;;;;;;;2.05;0.90;;;;;;;;;;4896572;29;20036;-67
2022/07/26 08:20:51;;;;;;;3.08;1.10;;;;;;;;;;4894777;29;20077;-68
2022/07/26 08:23:17;;;;;;;2.00;0.90;;;;;;;;;;4896838;29;20037;-68
2022/07/26 08:25:44;;;;;;;3.30;1.00;;;;;;;;;;4886807;29;20029;-68
2022/07/26 08:28:10;;;;;;;4.00;0.98;;;;;;;;;;4877968;29;20091;-68
2022/07/26 08:30:36;;;;;;;1.75;0.80;;;;;;;;;;4878041;29;20025;-68
2022/07/26 08:33:03;;;;;;;4.45;1.00;;;;;;;;;;4877219;29;20033;-68
2022/07/26 08:35:29;;;;;;;3.65;1.40;;;;;;;;;;4877981;29;20031;-68
2022/07/26 08:37:56;;;;;;;2.65;1.30;;;;;;;;;;4878003;29;20037;-68
2022/07/26 08:40:23;;;;;;;3.58;1.20;;;;;;;;;;4877922;29;20049;-67
2022/07/26 08:42:49;;;;;;;5.00;1.00;;;;;;;;;;4877578;29;20474;-68
2022/07/26 08:45:22;;;;;;;3.00;1.20;;;;;;;;;;4876987;29;20427;-68
2022/07/26 08:47:50;;;;;;;3.05;1.10;;;;;;;;;;4877771;29;20060;-68
2022/07/26 08:50:17;;;;;;;1.88;1.10;;;;;;;;;;4877546;29;20048;-68
2022/07/26 08:52:43;;;;;;;1.83;0.93;;;;;;;;;;4877792;29;20029;-67
2022/07/26 08:55:10;;;;;;;3.80;1.17;;;;;;;;;;4877538;29;20528;-68
2022/07/26 08:57:37;;;;;;;5.22;0.90;;;;;;;;;;4877832;29;20096;-68
2022/07/26 09:00:16;;;;;;;2.63;1.00;;;;;;;;;;4867511;29;20528;-68
2022/07/26 09:02:43;;;;;;;3.03;0.85;;;;;;;;;;4871688;29;20042;-68
2022/07/26 09:05:09;;;;;;;1.33;0.98;;;;;;;;;;4877451;29;20035;-68
2022/07/26 09:07:38;;;;;;;3.25;1.02;;;;;;;;;;4873295;29;20044;-68
2022/07/26 09:10:06;;;;;;;11.07;10.18;;;;;;;;;;4869098;29;20509;-68
2022/07/26 09:12:33;;;;;;;3.58;1.40;;;;;;;;;;4858730;29;20064;-68
2022/07/26 09:15:00;;;;;;;2.30;1.20;;;;;;;;;;4872628;29;20035;-68
2022/07/26 09:17:40;;;;;;;2.45;0.95;;;;;;;;;;4877336;29;20025;-68
2022/07/26 09:20:08;;;;;;;1.58;0.80;;;;;;;;;;4877239;29;20048;-68
2022/07/26 09:22:34;;;;;;;1.65;0.80;;;;;;;;;;4877226;29;20490;-68
2022/07/26 09:25:01;;;;;;;3.42;1.13;;;;;;;;;;4877034;29;20036;-68
2022/07/26 09:27:34;;;;;;;2.55;1.20;;;;;;;;;;4860517;29;20694;-68
2022/07/26 09:30:05;;;;;;;0.82;0.80;;;;;;;;;;4841737;29;20034;-68
2022/07/26 09:32:32;;;;;;;2.70;1.15;;;;;;;;;;4858489;29;20040;-68
2022/07/26 09:35:17;;;;;;;4.35;1.17;;;;;;;;;;4858790;29;20033;-68
2022/07/26 09:37:45;;;;;;;3.33;1.20;;;;;;;;;;4841900;29;20030;-68
2022/07/26 09:40:16;;;;;;;1.95;0.73;;;;;;;;;;4858375;29;20041;-68
2022/07/26 09:42:59;;;;;;;2.33;1.13;;;;;;;;;;4858363;29;20029;-68
2022/07/26 09:45:27;;;;;;;2.92;1.15;;;;;;;;;;4863477;29;20080;-68
2022/07/26 09:47:53;;;;;;;3.22;1.00;;;;;;;;;;4869569;29;20093;-68
2022/07/26 09:50:20;;;;;;;2.28;0.98;;;;;;;;;;4871969;29;20017;-67
2022/07/26 09:53:03;;;;;;;3.00;0.90;;;;;;;;;;4860082;29;20041;-68
2022/07/26 09:55:30;;;;;;;1.40;1.00;;;;;;;;;;4867908;29;20013;-68
2022/07/26 09:57:58;;;;;;;2.20;1.20;;;;;;;;;;4858926;29;20026;-68
2022/07/26 10:00:25;;;;;;;1.42;1.10;;;;;;;;;;4866283;29;20032;-68
2022/07/26 10:02:52;;;;;;;3.17;1.20;;;;;;;;;;4869838;29;20042;-68
2022/07/26 10:05:20;;;;;;;4.22;1.15;;;;;;;;;;4865378;29;20037;-68
2022/07/26 10:07:47;;;;;;;2.38;1.08;;;;;;;;;;4879853;29;20049;-68
2022/07/26 10:10:16;;;;;;;2.38;1.10;;;;;;;;;;4876613;29;20025;-68
2022/07/26 10:12:45;;;;;;;1.80;0.90;;;;;;;;;;4877252;29;20043;-68
2022/07/26 10:15:33;;;;;;;1.50;1.10;;;;;;;;;;4880287;29;20031;-68
2022/07/26 10:18:00;;;;;;;3.65;1.10;;;;;;;;;;4880510;29;20459;-70
2022/07/26 10:20:41;;;;;;;4.25;1.00;;;;;;;;;;4880668;29;20028;-69
2022/07/26 10:23:26;;;;;;;1.67;1.10;;;;;;;;;;4863384;29;20517;-70
2022/07/26 10:25:52;;;;;;;5.90;1.15;;;;;;;;;;4880280;29;20033;-69
2022/07/26 10:28:26;;;;;;;1.25;0.90;;;;;;;;;;4879785;29;20036;-69
2022/07/26 10:30:53;;;;;;;1.67;0.85;;;;;;;;;;4880274;29;20037;-69
2022/07/26 10:33:22;;;;;;;1.17;1.00;;;;;;;;;;4879926;29;20029;-70
2022/07/26 10:35:49;;;;;;;2.45;1.05;;;;;;;;;;4880345;29;20025;-70
2022/07/26 10:38:21;;;;;;;1.27;1.00;;;;;;;;;;4880213;29;20529;-69
2022/07/26 10:40:58;;;;;;;1.35;0.95;;;;;;;;;;4880505;29;20036;-69
2022/07/26 10:43:25;;;;;;;2.65;1.00;;;;;;;;;;4879964;29;20025;-70
2022/07/26 10:46:09;;;;;;;1.73;0.90;;;;;;;;;;4879935;29;20033;-70
2022/07/26 10:48:54;;;;;;;2.35;0.90;;;;;;;;;;4879341;29;20591;-70
2022/07/26 10:51:24;;;;;;;2.03;0.88;;;;;;;;;;4879960;29;20029;-67
2022/07/26 10:53:50;;;;;;;;;;;;;;;;;;4880429;29;20043;-68
2022/07/26 10:56:17;;;;;;;2.63;0.80;;;;;;;;;;4879617;29;19908;-69
2022/07/26 10:58:43;;;;;;;1.98;0.80;;;;;;;;;;4879637;29;20401;-68
2022/07/26 11:01:09;;;;;;;1.08;0.90;;;;;;;;;;4861948;29;20037;-69
2022/07/26 11:03:37;;;;;;;1.67;0.85;;;;;;;;;;4861231;29;20053;-71
2022/07/26 11:06:10;;;;;;;3.22;0.93;;;;;;;;;;4863832;29;20040;-69
2022/07/26 11:08:36;;;;;;;1.45;0.80;;;;;;;;;;4879990;29;20041;-70
2022/07/26 11:11:03;;;;;;;1.23;0.80;;;;;;;;;;4879297;29;20025;-70
2022/07/26 11:13:31;;;;;;;2.15;0.90;;;;;;;;;;4879628;29;20025;-70
2022/07/26 11:16:03;;;;;;;1.35;0.95;;;;;;;;;;4879657;29;20486;-70
2022/07/26 11:18:31;;;;;;;1.45;0.90;;;;;;;;;;4877383;29;20057;-70
2022/07/26 11:21:08;;;;;;;3.33;1.00;;;;;;;;;;4879314;29;20017;-70
2022/07/26 11:23:35;;;;;;;3.30;1.00;;;;;;;;;;4878896;29;20029;-70
2022/07/26 11:26:02;;;;;;;1.13;0.80;;;;;;;;;;4878936;29;20033;-70
2022/07/26 11:28:28;;;;;;;2.42;1.08;;;;;;;;;;4878975;29;20061;-70
2022/07/26 11:30:58;;;;;;;1.90;0.85;;;;;;;;;;4879293;29;20528;-70
2022/07/26 11:33:37;;;;;;;2.03;0.88;;;;;;;;;;4873093;29;20502;-70
2022/07/26 11:36:04;;;;;;;4.55;1.10;;;;;;;;;;4860633;29;20041;-68
2022/07/26 11:38:43;;;;;;;2.05;0.90;;;;;;;;;;4859699;29;20018;-68
2022/07/26 11:41:09;;;;;;;1.20;0.90;;;;;;;;;;4869791;29;20056;-67
2022/07/26 11:43:37;;;;;;;3.70;1.75;;;;;;;;;;4877860;29;20021;-69
2022/07/26 11:46:03;;;;;;;3.72;1.17;;;;;;;;;;4862388;29;20506;-69
2022/07/26 11:48:31;;;;;;;3.38;0.80;;;;;;;;;;4870096;29;20031;-69
2022/07/26 11:51:09;;;;;;;2.50;1.25;;;;;;;;;;4866424;29;20035;-69
2022/07/26 11:53:36;;;;;;;0.77;0.68;;;;;;;;;;4878956;29;20025;-69
2022/07/26 11:56:12;;;;;;;2.28;0.98;;;;;;;;;;4872210;29;20033;-68
2022/07/26 11:58:39;;;;;;;2.28;0.90;;;;;;;;;;4877558;29;20025;-68
2022/07/26 12:01:06;;;;;;;1.85;1.00;;;;;;;;;;4892148;29;20062;-68
2022/07/26 12:03:36;;;;;;;2.65;0.93;;;;;;;;;;4898127;29;20074;-68
2022/07/26 12:06:07;;;;;;;3.20;0.93;;;;;;;;;;4894598;29;20041;-68
2022/07/26 12:08:39;;;;;;;1.60;0.90;;;;;;;;;;4866832;29;20044;-67
2022/07/26 12:11:06;;;;;;;4.47;1.02;;;;;;;;;;4875353;29;20033;-68
2022/07/26 12:13:32;;;;;;;1.85;0.90;;;;;;;;;;4869281;29;20036;-69
2022/07/26 12:15:59;;;;;;;1.95;1.02;;;;;;;;;;4870584;29;20088;-68
2022/07/26 12:18:26;;;;;;;3.45;0.82;;;;;;;;;;4878067;29;20031;-69
2022/07/26 12:21:03;;;;;;;3.63;0.90;;;;;;;;;;4878176;29;20044;-68
2022/07/26 12:23:47;;;;;;;2.13;0.85;;;;;;;;;;4859354;29;20034;-68
2022/07/26 12:26:26;;;;;;;2.25;0.80;;;;;;;;;;4860947;29;20032;-69
2022/07/26 12:28:53;;;;;;;4.68;0.98;;;;;;;;;;4878071;29;20522;-68
2022/07/26 12:31:30;;;;;;;1.77;1.02;;;;;;;;;;4877435;29;20024;-69
2022/07/26 12:33:57;;;;;;;0.82;0.75;;;;;;;;;;4878009;29;20076;-69
2022/07/26 12:36:24;;;;;;;3.03;0.98;;;;;;;;;;4872015;29;20041;-68
2022/07/26 12:38:51;;;;;;;1.95;1.10;;;;;;;;;;4859115;29;20029;-69
2022/07/26 12:41:36;;;;;;;1.80;1.10;;;;;;;;;;4876877;29;20035;-69
2022/07/26 12:44:02;;;;;;;3.88;0.80;;;;;;;;;;4877754;29;20027;-68
2022/07/26 12:46:32;;;;;;;1.52;0.95;;;;;;;;;;4876948;29;20514;-68
2022/07/26 12:48:58;;;;;;;3.90;1.00;;;;;;;;;;4875166;29;20033;-68
2022/07/26 12:51:24;;;;;;;5.22;1.10;;;;;;;;;;4877775;29;20033;-68
2022/07/26 12:53:51;;;;;;;5.10;1.00;;;;;;;;;;4877169;29;20029;-69
2022/07/26 12:56:17;;;;;;;5.15;0.90;;;;;;;;;;4875903;29;20044;-68
2022/07/26 12:58:44;;;;;;;1.60;0.75;;;;;;;;;;4859045;29;20044;-68
2022/07/26 13:01:10;;;;;;;3.88;1.20;;;;;;;;;;4867282;29;20482;-68
2022/07/26 13:03:37;;;;;;;3.88;0.98;;;;;;;;;;4870495;29;20518;-69
2022/07/26 13:06:03;;;;;;;4.75;0.85;;;;;;;;;;4878313;29;20035;-68
2022/07/26 13:08:30;;;;;;;2.10;0.90;;;;;;;;;;4878707;29;20033;-69
2022/07/26 13:10:56;;;;;;;3.88;0.80;;;;;;;;;;4877530;29;20033;-69
2022/07/26 13:13:22;;;;;;;2.80;0.90;;;;;;;;;;4876555;29;20044;-68
2022/07/26 13:15:49;;;;;;;1.65;0.80;;;;;;;;;;4877037;29;20039;-69
2022/07/26 13:18:16;;;;;;;4.00;0.98;;;;;;;;;;4875663;29;20029;-68
2022/07/26 13:20:42;;;;;;;2.47;1.00;;;;;;;;;;4877487;29;20041;-67
2022/07/26 13:23:10;;;;;;;4.07;1.02;;;;;;;;;;4871125;29;20029;-69
2022/07/26 13:25:37;;;;;;;1.80;0.93;;;;;;;;;;4876441;29;20037;-69
2022/07/26 13:28:03;;;;;;;2.83;0.95;;;;;;;;;;4876945;29;20032;-68
2022/07/26 13:30:29;;;;;;;3.65;0.93;;;;;;;;;;4877230;29;20029;-68
2022/07/26 13:32:56;;;;;;;2.75;0.80;;;;;;;;;;4877284;29;20032;-68
2022/07/26 13:35:22;;;;;;;3.08;0.98;;;;;;;;;;4876365;29;20029;-68
2022/07/26 13:37:48;;;;;;;2.17;0.90;;;;;;;;;;4877089;29;20032;-68
2022/07/26 13:40:15;;;;;;;2.13;0.80;;;;;;;;;;4866508;29;20442;-68
2022/07/26 13:42:41;;;;;;;3.47;0.90;;;;;;;;;;4879541;29;20037;-68
2022/07/26 13:45:08;;;;;;;1.38;0.80;;;;;;;;;;4881256;29;20041;-68
2022/07/26 13:47:34;;;;;;;2.65;0.73;;;;;;;;;;4890804;29;20041;-68
2022/07/26 13:50:00;;;;;;;2.97;0.95;;;;;;;;;;4880962;29;20029;-68
2022/07/26 13:52:27;;;;;;;0.90;0.70;;;;;;;;;;4870853;29;20094;-68
2022/07/26 13:54:53;;;;;;;2.85;0.80;;;;;;;;;;4881449;29;20029;-68
2022/07/26 13:57:19;;;;;;;3.28;0.80;;;;;;;;;;4882615;29;20456;-68
2022/07/26 13:59:46;;;;;;;1.35;0.70;;;;;;;;;;4882575;29;20400;-68
2022/07/26 14:02:12;;;;;;;2.45;1.10;;;;;;;;;;4882751;29;20031;-68
2022/07/26 14:04:38;;;;;;;1.42;0.90;;;;;;;;;;4882126;29;20573;-69
2022/07/26 14:07:05;;;;;;;5.63;0.80;;;;;;;;;;4876076;29;20063;-68
2022/07/26 14:09:31;;;;;;;3.15;1.00;;;;;;;;;;4872739;29;20514;-68
2022/07/26 14:11:57;;;;;;;1.70;0.88;;;;;;;;;;4865751;29;20041;-68
2022/07/26 14:14:24;;;;;;;4.15;0.90;;;;;;;;;;4881858;29;20021;-68
2022/07/26 14:16:50;;;;;;;2.35;0.88;;;;;;;;;;4882300;29;20052;-68
2022/07/26 14:19:17;;;;;;;1.30;0.88;;;;;;;;;;4867051;29;20062;-69
2022/07/26 14:21:43;;;;;;;2.25;0.88;;;;;;;;;;4864420;29;20041;-68
2022/07/26 14:24:09;;;;;;;5.47;1.00;;;;;;;;;;4867122;29;20039;-68
2022/07/26 14:26:36;;;;;;;3.60;0.98;;;;;;;;;;4870358;29;20038;-68
2022/07/26 14:29:02;;;;;;;2.10;0.95;;;;;;;;;;4864001;29;20034;-68
2022/07/26 14:31:29;;;;;;;1.30;0.85;;;;;;;;;;4865121;29;20028;-68
2022/07/26 14:33:55;;;;;;;1.55;0.80;;;;;;;;;;4876498;29;20036;-68
2022/07/26 14:36:21;;;;;;;2.92;0.77;;;;;;;;;;4878277;29;20029;-68
2022/07/26 14:38:48;;;;;;;0.73;0.55;;;;;;;;;;4882862;29;20101;-68
2022/07/26 14:41:15;;;;;;;2.45;0.80;;;;;;;;;;4882262;29;20777;-68
2022/07/26 14:43:41;;;;;;;1.35;0.82;;;;;;;;;;4882576;29;20049;-68
2022/07/26 14:46:08;;;;;;;2.22;0.70;;;;;;;;;;4881821;29;20097;-67
2022/07/26 14:48:35;;;;;;;3.72;0.73;;;;;;;;;;4874030;29;20049;-66
2022/07/26 14:51:02;;;;;;;5.60;0.75;;;;;;;;;;4863886;29;20031;-68
2022/07/26 14:53:28;;;;;;;2.70;0.90;;;;;;;;;;4867642;29;20049;-67
2022/07/26 14:55:54;;;;;;;1.83;0.70;;;;;;;;;;4881815;29;20096;-67
2022/07/26 14:58:21;;;;;;;3.55;1.05;;;;;;;;;;4880257;29;20029;-68
2022/07/26 15:00:47;;;;;;;3.13;0.80;;;;;;;;;;4861551;29;20512;-67
2022/07/26 15:03:14;;;;;;;1.30;0.80;;;;;;;;;;4862366;29;20045;-67
2022/07/26 15:05:40;;;;;;;1.40;0.70;;;;;;;;;;4874704;29;20499;-67
2022/07/26 15:08:06;;;;;;;1.98;0.80;;;;;;;;;;4880179;29;20041;-67
2022/07/26 15:10:33;;;;;;;2.28;0.82;;;;;;;;;;4877240;29;20049;-67
2022/07/26 15:13:00;;;;;;;4.00;0.88;;;;;;;;;;4868362;29;20022;-67
2022/07/26 15:15:27;;;;;;;3.00;0.90;;;;;;;;;;4861469;29;20029;-67
2022/07/26 15:17:53;;;;;;;3.95;0.88;;;;;;;;;;4878382;29;20029;-66
2022/07/26 15:20:21;;;;;;;5.85;1.13;;;;;;;;;;4879070;29;20029;-67
2022/07/26 15:22:48;;;;;;;2.20;0.88;;;;;;;;;;4870123;29;20021;-67
2022/07/26 15:25:14;;;;;;;4.75;0.80;;;;;;;;;;4876011;29;20080;-66
2022/07/26 15:27:40;;;;;;;1.73;0.65;;;;;;;;;;4871743;29;20037;-66
2022/07/26 15:30:07;;;;;;;1.42;0.80;;;;;;;;;;4861901;29;20093;-66
2022/07/26 15:32:34;;;;;;;1.35;0.60;;;;;;;;;;4878453;29;20532;-67
2022/07/26 15:35:00;;;;;;;4.45;0.88;;;;;;;;;;4880522;29;20033;-67
2022/07/26 15:37:27;;;;;;;2.22;0.82;;;;;;;;;;4880359;29;20363;-68
2022/07/26 15:39:53;;;;;;;4.70;1.10;;;;;;;;;;4880607;29;20025;-68
2022/07/26 15:42:19;;;;;;;3.53;0.90;;;;;;;;;;4880545;29;20197;-68
2022/07/26 15:44:46;;;;;;;2.13;0.80;;;;;;;;;;4880341;29;20394;-67
2022/07/26 15:47:12;;;;;;;2.13;0.70;;;;;;;;;;4879808;29;20041;-67
2022/07/26 15:49:38;;;;;;;3.28;1.02;;;;;;;;;;4880069;29;20092;-67
2022/07/26 15:52:05;;;;;;;1.65;0.70;;;;;;;;;;4880110;29;20029;-67
2022/07/26 15:54:31;;;;;;;1.45;0.70;;;;;;;;;;4880332;29;20033;-67
2022/07/26 15:56:57;;;;;;;2.42;0.90;;;;;;;;;;4880104;29;20048;-68
2022/07/26 15:59:24;;;;;;;3.60;0.70;;;;;;;;;;4880252;29;20029;-67
2022/07/26 16:01:50;;;;;;;1.60;0.77;;;;;;;;;;4879584;29;20087;-68
2022/07/26 16:04:16;;;;;;;1.70;0.85;;;;;;;;;;4879806;29;20045;-67
2022/07/26 16:06:43;;;;;;;3.65;0.98;;;;;;;;;;4883211;29;20037;-67
2022/07/26 16:09:11;;;;;;;2.22;0.80;;;;;;;;;;4879600;29;20498;-67
2022/07/26 16:11:37;;;;;;;2.80;1.13;;;;;;;;;;4879007;29;20049;-67
2022/07/26 16:14:03;;;;;;;1.50;0.93;;;;;;;;;;4880103;29;20035;-67
2022/07/26 16:16:30;;;;;;;2.40;0.93;;;;;;;;;;4879362;29;20036;-68
2022/07/26 16:18:57;;;;;;;2.22;0.70;;;;;;;;;;4879752;29;20443;-67
2022/07/26 16:21:23;;;;;;;3.55;1.17;;;;;;;;;;4879894;29;20029;-67
2022/07/26 16:23:50;;;;;;;3.95;1.13;;;;;;;;;;4879472;29;20025;-68
2022/07/26 16:26:16;;;;;;;8.30;1.00;;;;;;;;;;4879507;29;20036;-67
2022/07/26 16:28:43;;;;;;;2.30;0.90;;;;;;;;;;4879406;29;20045;-67
2022/07/26 16:31:09;;;;;;;2.95;1.00;;;;;;;;;;4879085;29;20069;-67
2022/07/26 16:33:35;;;;;;;1.92;0.70;;;;;;;;;;4879464;29;20025;-68
2022/07/26 16:36:02;;;;;;;2.30;0.90;;;;;;;;;;4879438;29;20037;-68
2022/07/26 16:38:28;;;;;;;3.80;0.80;;;;;;;;;;4879281;29;20031;-68
2022/07/26 16:40:55;;;;;;;5.47;0.85;;;;;;;;;;4879400;29;20025;-67
2022/07/26 16:43:21;;;;;;;1.80;0.80;;;;;;;;;;4879427;29;20047;-67
2022/07/26 16:45:47;;;;;;;2.20;1.08;;;;;;;;;;4878779;29;20035;-68
2022/07/26 16:48:13;;;;;;;1.75;1.00;;;;;;;;;;4879145;29;20041;-67
2022/07/26 16:50:40;;;;;;;2.75;1.00;;;;;;;;;;4879142;29;20434;-68
2022/07/26 16:53:06;;;;;;;2.55;0.93;;;;;;;;;;4878880;29;20032;-67
2022/07/26 16:55:33;;;;;;;1.52;0.77;;;;;;;;;;4879066;29;20037;-67
2022/07/26 16:57:59;;;;;;;3.95;0.82;;;;;;;;;;4878920;29;20033;-67
2022/07/26 17:00:25;;;;;;;4.47;0.82;;;;;;;;;;4878721;29;20033;-67
2022/07/26 17:02:51;;;;;;;1.83;0.80;;;;;;;;;;4862009;29;20029;-68
2022/07/26 17:05:18;;;;;;;2.15;0.95;;;;;;;;;;4879041;29;20044;-68
2022/07/26 17:07:44;;;;;;;4.65;1.00;;;;;;;;;;4882041;29;20037;-67
2022/07/26 17:10:10;;;;;;;1.60;0.95;;;;;;;;;;4878864;29;20021;-68
2022/07/26 17:12:37;;;;;;;2.25;1.00;;;;;;;;;;4878643;29;20482;-68
2022/07/26 17:15:04;;;;;;;2.40;1.15;;;;;;;;;;4878437;29;20043;-67
2022/07/26 17:17:31;;;;;;;1.70;0.90;;;;;;;;;;4878998;29;20033;-68
2022/07/26 17:19:57;;;;;;;2.90;0.70;;;;;;;;;;4862104;29;20591;-67
2022/07/26 17:22:23;;;;;;;2.50;0.80;;;;;;;;;;4878249;29;20021;-67
2022/07/26 17:24:50;;;;;;;5.10;1.02;;;;;;;;;;4878730;29;20029;-67
2022/07/26 17:27:16;;;;;;;1.50;0.77;;;;;;;;;;4878198;29;20041;-68
2022/07/26 17:29:43;;;;;;;1.90;0.80;;;;;;;;;;4878523;29;20025;-68
2022/07/26 17:32:09;;;;;;;1.75;0.90;;;;;;;;;;4878491;29;20029;-67
2022/07/26 17:34:36;;;;;;;2.33;0.73;;;;;;;;;;4878690;29;20029;-68
2022/07/26 17:37:03;;;;;;;4.35;1.00;;;;;;;;;;4878426;29;20397;-67
2022/07/26 17:39:30;;;;;;;2.55;1.00;;;;;;;;;;4878880;29;20035;-67
2022/07/26 17:41:56;;;;;;;3.45;0.85;;;;;;;;;;4877965;29;20021;-68
2022/07/26 17:44:23;;;;;;;3.78;1.00;;;;;;;;;;4878321;29;20033;-68
2022/07/26 17:46:50;;;;;;;2.20;0.90;;;;;;;;;;4878536;29;20047;-68
2022/07/26 17:49:16;;;;;;;3.28;0.80;;;;;;;;;;4878445;29;20024;-67
2022/07/26 17:51:44;;;;;;;3.70;0.80;;;;;;;;;;4878509;29;20033;-68
2022/07/26 17:54:11;;;;;;;5.68;0.85;;;;;;;;;;4878300;29;20029;-68
2022/07/26 17:56:37;;;;;;;3.20;0.88;;;;;;;;;;4878275;29;20036;-68
2022/07/26 17:59:04;;;;;;;1.70;0.80;;;;;;;;;;4878438;29;20021;-68
2022/07/26 18:01:30;;;;;;;2.03;0.85;;;;;;;;;;4878303;29;20021;-67
2022/07/26 18:03:57;;;;;;;10.15;1.20;;;;;;;;;;4877995;29;20080;-68
2022/07/26 18:06:23;;;;;;;4.70;1.05;;;;;;;;;;4881351;29;20053;-67
2022/07/26 18:08:50;;;;;;;2.63;0.80;;;;;;;;;;4878431;29;20027;-67
2022/07/26 18:11:16;;;;;;;5.22;0.80;;;;;;;;;;4877813;29;20029;-68
2022/07/26 18:13:42;;;;;;;2.63;0.80;;;;;;;;;;4878379;29;20031;-68
2022/07/26 18:16:09;;;;;;;5.32;0.80;;;;;;;;;;4878405;29;20025;-67
2022/07/26 18:18:35;;;;;;;1.55;0.75;;;;;;;;;;4878156;29;20036;-67
2022/07/26 18:21:01;;;;;;;4.45;0.80;;;;;;;;;;4878069;29;20032;-68
2022/07/26 18:23:28;;;;;;;2.72;0.60;;;;;;;;;;4878085;29;20479;-68
2022/07/26 18:25:56;;;;;;;1.67;0.80;;;;;;;;;;4877873;29;20094;-68
2022/07/26 18:28:23;;;;;;;3.58;0.70;;;;;;;;;;4878077;29;20036;-68
2022/07/26 18:30:50;;;;;;;1.58;1.00;;;;;;;;;;4878192;29;20035;-67
2022/07/26 18:33:16;;;;;;;1.27;0.80;;;;;;;;;;4878844;29;20041;-67
2022/07/26 18:35:43;;;;;;;5.07;0.70;;;;;;;;;;4881599;29;20033;-67
2022/07/26 18:38:09;;;;;;;3.85;0.90;;;;;;;;;;4881663;29;20025;-68
2022/07/26 18:40:36;;;;;;;2.72;0.85;;;;;;;;;;4864336;29;20653;-68
2022/07/26 18:43:02;;;;;;;2.00;0.70;;;;;;;;;;4881320;29;20390;-67
2022/07/26 18:45:29;;;;;;;0.77;0.70;;;;;;;;;;4881650;29;20029;-67
2022/07/26 18:47:55;;;;;;;1.20;0.75;;;;;;;;;;4881198;29;20155;-68
2022/07/26 18:50:21;;;;;;;5.25;0.73;;;;;;;;;;4881311;29;20036;-67
2022/07/26 18:52:48;;;;;;;1.55;0.60;;;;;;;;;;4881155;29;20044;-68
2022/07/26 18:55:14;;;;;;;4.35;1.02;;;;;;;;;;4864473;29;20037;-68
2022/07/26 18:57:42;;;;;;;2.20;0.73;;;;;;;;;;4881025;29;20033;-67
2022/07/26 19:00:09;;;;;;;0.70;0.70;;;;;;;;;;4881304;29;20025;-67
2022/07/26 19:02:36;;;;;;;1.25;0.70;;;;;;;;;;4881087;29;20033;-67
2022/07/26 19:05:03;;;;;;;1.02;0.60;;;;;;;;;;4880813;29;20067;-68
2022/07/26 19:07:30;;;;;;;46.40;30.58;;;;;;;;;;4867499;29;20049;-67
2022/07/26 19:09:57;;;;;;;13.07;9.15;;;;;;;;;;4880440;29;20387;-68
2022/07/26 19:12:23;;;;;;;10.50;6.43;;;;;;;;;;4880836;29;20051;-67
2022/07/26 19:14:49;;;;;;;101.30;49.88;;;;;;;;;;4880946;29;20500;-67
2022/07/26 19:17:16;;;;;;;13.05;7.43;;;;;;;;;;4881030;29;20029;-67
2022/07/26 19:19:42;;;;;;;6.28;1.83;;;;;;;;;;4880756;29;20400;-67
2022/07/26 19:22:09;;;;;;;1.67;1.20;;;;;;;;;;4880655;29;20401;-67
2022/07/26 19:24:35;;;;;;;4.68;0.90;;;;;;;;;;4880340;29;20025;-67
2022/07/26 19:27:02;;;;;;;2.08;0.70;;;;;;;;;;4864138;29;20040;-68
2022/07/26 19:29:28;;;;;;;2.95;0.63;;;;;;;;;;4880724;29;20466;-67
2022/07/26 19:31:54;;;;;;;3.55;0.63;;;;;;;;;;4880730;29;20036;-67
2022/07/26 19:34:22;;;;;;;1.02;0.73;;;;;;;;;;4880496;29;20450;-67
2022/07/26 19:36:49;;;;;;;2.13;0.65;;;;;;;;;;4880492;29;20029;-67
2022/07/26 19:39:16;;;;;;;0.70;0.70;;;;;;;;;;4880107;29;20029;-67
2022/07/26 19:41:43;;;;;;;2.85;0.70;;;;;;;;;;4880297;29;20028;-68
2022/07/26 19:44:09;;;;;;;7.35;0.80;;;;;;;;;;4880388;29;20047;-67
2022/07/26 19:46:35;;;;;;;1.30;0.70;;;;;;;;;;4880103;29;20513;-67
2022/07/26 19:49:03;;;;;;;1.02;0.70;;;;;;;;;;4880408;29;20029;-67
2022/07/26 19:51:30;;;;;;;0.85;0.73;;;;;;;;;;4880245;29;20051;-68
2022/07/26 19:53:56;;;;;;;1.45;0.80;;;;;;;;;;4880007;29;20029;-67
2022/07/26 19:56:22;;;;;;;1.20;0.70;;;;;;;;;;4880170;29;20036;-68
2022/07/26 19:58:49;;;;;;;0.70;0.57;;;;;;;;;;4880142;29;20518;-67
2022/07/26 20:01:16;;;;;;;2.97;0.70;;;;;;;;;;4880238;29;20032;-68
2022/07/26 20:03:42;;;;;;;0.73;0.50;;;;;;;;;;4880035;29;20053;-67
2022/07/26 20:06:09;;;;;;;1.90;0.70;;;;;;;;;;4881998;29;20029;-68
2022/07/26 20:08:35;;;;;;;2.10;0.60;;;;;;;;;;4880783;29;20089;-67
2022/07/26 20:11:01;;;;;;;2.88;0.90;;;;;;;;;;4879736;29;20017;-68
2022/07/26 20:13:28;;;;;;;1.63;0.60;;;;;;;;;;4879807;29;20033;-67
2022/07/26 20:15:54;;;;;;;3.10;0.80;;;;;;;;;;4879679;29;20486;-67
2022/07/26 20:18:23;;;;;;;2.25;0.73;;;;;;;;;;4879963;29;20025;-67
2022/07/26 20:20:54;;;;;;;2.80;1.00;;;;;;;;;;4879750;29;20021;-67
2022/07/26 20:23:21;;;;;;;1.95;0.68;;;;;;;;;;4879393;29;20048;-68
2022/07/26 20:25:47;;;;;;;1.75;0.55;;;;;;;;;;4879682;29;20080;-67
2022/07/26 20:28:14;;;;;;;3.08;0.73;;;;;;;;;;4879612;29;20516;-67
2022/07/26 20:30:40;;;;;;;1.40;0.60;;;;;;;;;;4879387;29;20435;-67
2022/07/26 20:33:07;;;;;;;4.50;0.77;;;;;;;;;;4879366;29;20089;-67
2022/07/26 20:35:33;;;;;;;1.40;0.70;;;;;;;;;;4879661;29;20025;-67
2022/07/26 20:38:00;;;;;;;0.82;0.60;;;;;;;;;;4879095;29;20029;-67
2022/07/26 20:40:27;;;;;;;9.30;0.95;;;;;;;;;;4879316;29;20029;-67
2022/07/26 20:42:54;;;;;;;1.20;0.70;;;;;;;;;;4879198;29;20470;-67
2022/07/26 20:45:24;;;;;;;1.38;0.80;;;;;;;;;;4879148;29;20498;-67
2022/07/26 20:47:50;;;;;;;2.17;0.82;;;;;;;;;;4879045;29;20037;-67